Barr, Indiana
Current Conditions -  °F | °C
As of 4:35 AM on Saturday 25 Oct 2014 (Local Time) from KDCY Reporting Station
Overcast Overcast  
Wind Chill: 56°   Ceiling: 3800
Heat Index: 56°   Visibility: 10mi
Dew Point: 54°   Wind: 6mph
Humidity: 94%   Direction: 180°S
Pressure: 29.99"   Gusts: NA
Location:  38.6949°N, 86.968°W
Report Text: KDCY 250935Z AUTO 18005KT 10SM OVC038 13/12 A2999 RMK AO2 T01310121
Loading
Personal Weather Stations






























Interactive Weather Map
Tropical Storm Tracking
New forecast layout! Learn more

10-Day Weather Forecast

Advertisements
Track Severe Weather on mobile